ADDS METAR Data INFO
IDs: Format: Raw Decoded Include TAF

Data at: 0806 UTC 23 Jul 2018

KTOI 230753Z AUTO 00000KT 9SM CLR 22/20 A2978 RMK AO2 SLP078 T02170200 $
KTOI 230653Z AUTO 00000KT 7SM CLR 21/20 A2978 RMK AO2 SLP078 T02110200 $
KTOI 230553Z AUTO 00000KT 10SM CLR 22/21 A2979 RMK AO2 SLP080 T02170211 10300 20217 403280217 58012 $
KTOI 230453Z AUTO 00000KT 10SM CLR 23/22 A2981 RMK AO2 SLP087 T02280217 $
KTOI 230353Z AUTO 00000KT 10SM BKN080 23/22 A2982 RMK AO2 SLP091 T02330222 $
KTOI 230253Z AUTO 00000KT 10SM CLR 24/22 A2982 RMK AO2 SLP092 T02440222 53022 $
KTOI 230153Z AUTO 00000KT 10SM CLR 26/21 A2980 RMK AO2 SLP085 T02610211 $
KTOI 230053Z AUTO 30003KT 10SM CLR 28/21 A2978 RMK AO2 SLP077 T02780211 $
KTOI 230006Z AUTO 31006KT 10SM FEW001 SCT100 29/22 A2976 RMK AO2 LTG DSNT E AND SE T02940217 $
KTOI 222353Z AUTO 30005KT 10SM CLR 30/23 A2976 RMK AO2 LTG DSNT E RAE12 SLP070 P0001 60001 T03000228 10317 20283 55002 $
KTOI 222253Z AUTO 25004KT 8SM -RA FEW038 SCT065 BKN080 30/23 A2974 RMK AO2 LTG DSNT NE AND E RAB53 SLP065 P0000 T03000228 $
KTOI 222153Z AUTO 27007KT 10SM CLR 32/22 A2975 RMK AO2 SLP069 T03170222 $
KTOI 222053Z AUTO 24004KT 10SM CLR 31/21 A2976 RMK AO2 SLP072 60000 T03060206 56012 $
KTOI 221953Z AUTO 26008KT 10SM FEW035 30/19 A2978 RMK AO2 PK WND 24027/1924 LTG DSNT E AND SE RAE1856 SLP077 P0000 T03000194 $
KTOI 221920Z AUTO 29008KT 10SM FEW045 31/24 A2980 RMK AO2 LTG DSNT ALQDS RAE1856 P0000 T03110239 $
KTOI 221853Z AUTO 31004KT 10SM VCTS -RA SCT044 BKN055 BKN070 29/23 A2978 RMK AO2 LTG DSNT ALQDS RAB33 SLP078 P0000 T02940233 $
KTOI 221837Z AUTO 28004KT 10SM VCTS -RA FEW055 SCT075 SCT100 30/22 A2978 RMK AO2 LTG DSNT ALQDS RAB33 P0000 T03000222 $
KTOI 221753Z AUTO 24004KT 10SM FEW050 SCT065 SCT080 32/21 A2980 RMK AO2 LTG DSNT W SLP084 T03170206 10328 20239 58022 $
KTOI 221653Z AUTO VRB05KT 10SM CLR 32/21 A2984 RMK AO2 SLP098 T03220211 $
KTOI 221553Z AUTO 24004KT 10SM CLR 31/20 A2986 RMK AO2 SLP104 T03110200 $
KTOI 221453Z AUTO 27006KT 10SM CLR 30/21 A2986 RMK AO2 SLP106 T03000206 51002 $
KTOI 221353Z AUTO 00000KT 10SM CLR 28/23 A2986 RMK AO2 SLP104 T02830228 $
KTOI 221253Z AUTO 25003KT 10SM CLR 26/23 A2986 RMK AO2 SLP106 T02610233 $
KTOI 221153Z AUTO 21003KT 9SM CLR 24/23 A2986 RMK AO2 SLP104 60001 70001 T02390228 10261 20228 55000 $
KTOI 221053Z AUTO 00000KT 10SM CLR 24/22 A2984 RMK AO2 SLP098 T02390222 $
KTOI 220953Z AUTO 30006KT 10SM CLR 24/22 A2984 RMK AO2 SLP097 T02440222 $
KTOI 220853Z AUTO 29004KT 10SM CLR 24/22 A2986 RMK AO2 SLP104 60001 T02440222 55004 $
KTOI 220753Z AUTO 27003KT 10SM CLR 24/23 A2985 RMK AO2 LTG DSNT SW AND W RAE18 SLP101 P0000 T02390228 $
KTOI 220653Z AUTO 33007KT 7SM -RA FEW060 SCT080 BKN110 26/23 A2985 RMK AO2 RAB48 SLP103 P0001 T02560228 $
KTOI 220611Z AUTO 22005KT 10SM FEW080 26/23 A2986 RMK AO2 LTG DSNT ALQDS T02610228 $
KTOI 220553Z AUTO 22005KT 10SM VCTS FEW080 26/23 A2987 RMK AO2 LTG DSNT SE-SW SLP108 T02560233 10311 20244 403330228 58001 $
KTOI 220453Z AUTO 20004KT 10SM CLR 25/23 A2987 RMK AO2 LTG DSNT SW AND W SLP110 T02500233 $
KTOI 220353Z AUTO 16003KT 10SM CLR 25/23 A2988 RMK AO2 SLP111 T02500233 $
KTOI 220253Z AUTO VRB03KT 10SM CLR 28/23 A2987 RMK AO2 SLP109 T02830228 51012 $
KTOI 220153Z AUTO 00000KT 10SM CLR 27/25 A2986 RMK AO2 SLP105 T02720250 $
KTOI 220053Z AUTO 00000KT 10SM CLR 29/24 A2986 RMK AO2 SLP104 T02890244 $
KTOI 212353Z AUTO 23005KT 10SM CLR 31/24 A2984 RMK AO2 SLP097 T03110239 10333 20306 56016 $
KTOI 212253Z AUTO 23008KT 10SM FEW070 32/23 A2984 RMK AO2 SLP097 T03170228 $
KTOI 212153Z AUTO 25008KT 10SM CLR 33/22 A2985 RMK AO2 LTG DSNT SW SLP103 T03280217 $
KTOI 212053Z AUTO 23011KT 10SM FEW050 33/22 A2988 RMK AO2 SLP113 T03280217 55003 $